createdAt,value
2022-09-13T00:00:19.847Z,18.25
2022-09-13T00:03:31.076Z,18.19
2022-09-13T00:06:21.629Z,18.19
2022-09-13T00:09:11.898Z,18.19
2022-09-13T00:12:02.946Z,18.19
2022-09-13T00:14:53.722Z,18.19
2022-09-13T00:17:44.824Z,18.19
2022-09-13T00:20:35.143Z,18.19
2022-09-13T00:23:25.117Z,18.13
2022-09-13T00:26:20.476Z,18.13
2022-09-13T00:29:10.461Z,18.13
2022-09-13T00:32:01.378Z,18.13
2022-09-13T00:34:52.022Z,18.13
2022-09-13T00:37:42.667Z,18.13
2022-09-13T00:40:37.277Z,18.13
2022-09-13T00:43:44.549Z,18.06
2022-09-13T00:46:37.381Z,18.06
2022-09-13T00:49:32.161Z,18.06
2022-09-13T00:52:23.671Z,18.06
2022-09-13T00:55:18.584Z,18.06
2022-09-13T00:58:12.101Z,18.06
2022-09-13T01:01:03.267Z,18.06
2022-09-13T01:03:53.560Z,18.00
2022-09-13T01:06:44.951Z,18.00
2022-09-13T01:09:37.568Z,18.00
2022-09-13T01:12:33.490Z,18.00
2022-09-13T01:15:23.782Z,18.00
2022-09-13T01:18:14.132Z,18.00
2022-09-13T01:21:35.116Z,18.00
2022-09-13T01:25:11.569Z,17.94
2022-09-13T01:28:14.514Z,17.94
2022-09-13T01:31:07.948Z,17.94
2022-09-13T01:34:08.218Z,17.94
2022-09-13T01:37:17.291Z,17.94
2022-09-13T01:40:16.906Z,17.94
2022-09-13T01:43:25.717Z,17.94
2022-09-13T01:46:19.456Z,17.94
2022-09-13T01:49:14.668Z,17.94
2022-09-13T01:52:09.490Z,17.94
2022-09-13T01:55:03.434Z,17.88
2022-09-13T01:57:56.946Z,17.88
2022-09-13T02:00:51.886Z,17.88
2022-09-13T02:03:46.371Z,17.88
2022-09-13T02:06:40.599Z,17.88
2022-09-13T02:09:35.475Z,17.88
2022-09-13T02:12:26.892Z,17.88
2022-09-13T02:15:18.935Z,17.88
2022-09-13T02:18:12.746Z,17.88
2022-09-13T02:21:07.741Z,17.88
2022-09-13T02:24:02.254Z,17.88
2022-09-13T02:26:53.003Z,17.88
2022-09-13T02:29:46.846Z,17.88
2022-09-13T02:32:39.741Z,17.81
2022-09-13T02:35:34.814Z,17.88
2022-09-13T02:38:26.772Z,17.81
2022-09-13T02:41:19.663Z,17.88
2022-09-13T02:44:12.825Z,17.81
2022-09-13T02:47:14.521Z,17.81
2022-09-13T02:50:16.769Z,17.81
2022-09-13T02:53:12.468Z,17.81
2022-09-13T02:56:08.676Z,17.81
2022-09-13T02:59:02.695Z,17.81
2022-09-13T03:01:56.923Z,17.81
2022-09-13T03:04:50.226Z,17.81
2022-09-13T03:07:40.800Z,17.81
2022-09-13T03:10:37.017Z,17.81
2022-09-13T03:13:42.428Z,17.81
2022-09-13T03:16:45.374Z,17.81
2022-09-13T03:19:53.548Z,17.81
2022-09-13T03:23:13.084Z,17.81
2022-09-13T03:26:45.451Z,17.81
2022-09-13T03:29:42.056Z,17.81
2022-09-13T03:32:39.646Z,17.75
2022-09-13T03:35:34.952Z,17.81
2022-09-13T03:38:29.518Z,17.75
2022-09-13T03:41:22.243Z,17.75
2022-09-13T03:44:14.296Z,17.75
2022-09-13T03:47:04.906Z,17.75
2022-09-13T03:49:55.458Z,17.75
2022-09-13T03:52:47.015Z,17.75
2022-09-13T03:55:46.554Z,17.75
2022-09-13T03:58:36.825Z,17.75
2022-09-13T04:01:27.695Z,17.75
2022-09-13T04:04:17.953Z,17.75
2022-09-13T04:07:10.747Z,17.75
2022-09-13T04:10:03.936Z,17.75
2022-09-13T04:12:58.008Z,17.75
2022-09-13T04:15:49.900Z,17.75
2022-09-13T04:18:43.396Z,17.75
2022-09-13T04:21:35.950Z,17.75
2022-09-13T04:24:28.879Z,17.75
2022-09-13T04:27:21.440Z,17.75
2022-09-13T04:30:17.783Z,17.75
2022-09-13T04:33:09.413Z,17.75
2022-09-13T04:36:02.797Z,17.75
2022-09-13T04:38:57.055Z,17.75
2022-09-13T04:41:48.577Z,17.75
2022-09-13T04:44:40.466Z,17.75
2022-09-13T04:47:34.390Z,17.75
2022-09-13T04:50:27.465Z,17.75
2022-09-13T04:53:19.794Z,17.81
2022-09-13T04:56:13.979Z,17.81
2022-09-13T04:59:07.157Z,17.81
2022-09-13T05:01:59.578Z,17.81
2022-09-13T05:04:51.544Z,17.81
2022-09-13T05:07:50.455Z,17.81
2022-09-13T05:10:42.854Z,17.81
2022-09-13T05:13:35.293Z,17.81
2022-09-13T05:16:33.790Z,17.88
2022-09-13T05:19:26.113Z,17.88
2022-09-13T05:22:21.933Z,17.88
2022-09-13T05:25:16.481Z,17.88
2022-09-13T05:28:15.950Z,17.88
2022-09-13T05:31:10.754Z,17.88
2022-09-13T05:34:05.495Z,17.94
2022-09-13T05:37:02.380Z,17.94
2022-09-13T05:40:10.791Z,17.94
2022-09-13T05:43:06.002Z,17.94
2022-09-13T05:46:16.716Z,18.00
2022-09-13T05:49:12.212Z,18.00
2022-09-13T05:52:05.522Z,18.06
2022-09-13T05:54:59.978Z,18.06
2022-09-13T05:57:53.925Z,18.13
2022-09-13T06:00:47.459Z,18.13
2022-09-13T06:03:40.963Z,18.13
2022-09-13T06:06:33.576Z,18.19
2022-09-13T06:09:33.866Z,18.19
2022-09-13T06:12:28.128Z,18.25
2022-09-13T06:15:23.818Z,18.25
2022-09-13T06:18:17.699Z,18.25
2022-09-13T06:21:29.077Z,18.25
2022-09-13T06:24:26.603Z,18.25
2022-09-13T06:27:22.893Z,18.31
2022-09-13T06:30:19.448Z,18.31
2022-09-13T06:33:15.977Z,18.31
2022-09-13T06:36:15.081Z,18.31
2022-09-13T06:39:14.584Z,18.31
2022-09-13T06:42:07.685Z,18.31
2022-09-13T06:45:12.552Z,18.38
2022-09-13T06:48:08.088Z,18.38
2022-09-13T06:51:03.033Z,18.38
2022-09-13T06:54:03.227Z,18.38
2022-09-13T06:57:04.201Z,18.44
2022-09-13T07:00:08.624Z,18.44
2022-09-13T07:03:17.515Z,18.50
2022-09-13T07:06:17.210Z,18.50
2022-09-13T07:09:20.324Z,18.50
2022-09-13T07:12:19.976Z,18.56
2022-09-13T07:15:15.153Z,18.56
2022-09-13T07:18:10.041Z,18.63
2022-09-13T07:21:07.645Z,18.63
2022-09-13T07:24:08.943Z,18.63
2022-09-13T07:27:01.674Z,18.69
2022-09-13T07:30:02.666Z,18.69
2022-09-13T07:32:59.291Z,18.69
2022-09-13T07:36:01.250Z,18.75
2022-09-13T07:38:58.107Z,18.75
2022-09-13T07:41:57.310Z,18.81
2022-09-13T07:44:54.267Z,18.81
2022-09-13T07:47:54.194Z,18.81
2022-09-13T07:50:58.401Z,18.88
2022-09-13T07:53:57.504Z,18.88
2022-09-13T07:56:52.527Z,18.88
2022-09-13T07:59:53.969Z,18.94
2022-09-13T08:02:53.716Z,18.94
2022-09-13T08:05:48.977Z,19.00
2022-09-13T08:08:49.668Z,19.00
2022-09-13T08:11:50.306Z,19.06
2022-09-13T08:15:01.656Z,19.06
2022-09-13T08:17:59.598Z,19.13
2022-09-13T08:20:53.170Z,19.13
2022-09-13T08:23:46.659Z,19.19
2022-09-13T08:26:44.101Z,19.19
2022-09-13T08:29:38.809Z,19.25
2022-09-13T08:32:39.293Z,19.25
2022-09-13T08:35:34.374Z,19.25
2022-09-13T08:38:27.994Z,19.25
2022-09-13T08:41:49.487Z,19.31
2022-09-13T08:44:47.252Z,19.31
2022-09-13T08:47:50.285Z,19.38
2022-09-13T08:50:45.105Z,19.38
2022-09-13T08:53:50.436Z,19.38
2022-09-13T08:56:47.320Z,19.38
2022-09-13T08:59:57.149Z,19.38
2022-09-13T09:03:04.128Z,19.38
2022-09-13T09:06:19.508Z,19.44
2022-09-13T09:09:25.679Z,19.44
2022-09-13T09:12:25.861Z,19.44
2022-09-13T09:15:23.681Z,19.44
2022-09-13T09:18:24.466Z,19.50
2022-09-13T09:21:22.702Z,19.50
2022-09-13T09:24:22.041Z,19.50
2022-09-13T09:27:17.954Z,19.56
2022-09-13T09:30:22.520Z,19.56
2022-09-13T09:33:29.197Z,19.56
2022-09-13T09:36:30.045Z,19.63
2022-09-13T09:39:26.270Z,19.63
2022-09-13T09:42:34.005Z,19.63
2022-09-13T09:45:30.440Z,19.69
2022-09-13T09:48:32.858Z,19.69
2022-09-13T09:51:34.195Z,19.69
2022-09-13T09:54:35.085Z,19.69
2022-09-13T09:57:56.237Z,19.75
2022-09-13T10:01:00.408Z,19.75
2022-09-13T10:04:09.048Z,19.75
2022-09-13T10:07:30.373Z,19.75
2022-09-13T10:10:35.834Z,19.75
2022-09-13T10:13:44.226Z,19.81
2022-09-13T10:16:42.172Z,19.81
2022-09-13T10:19:41.102Z,19.81
2022-09-13T10:22:35.521Z,19.81
2022-09-13T10:25:33.257Z,19.81
2022-09-13T10:28:30.096Z,19.81
2022-09-13T10:31:35.570Z,19.88
2022-09-13T10:34:34.131Z,19.88
2022-09-13T10:37:40.517Z,19.88
2022-09-13T10:40:39.292Z,19.88
2022-09-13T10:43:42.872Z,19.94
2022-09-13T10:46:47.752Z,19.94
2022-09-13T10:49:51.086Z,19.94
2022-09-13T10:52:56.308Z,19.94
2022-09-13T10:56:03.797Z,19.94
2022-09-13T10:59:28.763Z,19.94
2022-09-13T11:02:43.733Z,19.94
2022-09-13T11:05:47.558Z,19.94
2022-09-13T11:08:46.825Z,20.00
2022-09-13T11:11:48.429Z,20.00
2022-09-13T11:14:58.165Z,20.00
2022-09-13T11:18:23.684Z,20.00
2022-09-13T11:21:42.061Z,20.00
2022-09-13T11:24:50.747Z,20.06
2022-09-13T11:27:55.815Z,20.06
2022-09-13T11:31:22.810Z,20.06
2022-09-13T11:34:30.110Z,20.06
2022-09-13T11:37:37.736Z,20.06
2022-09-13T11:40:45.212Z,20.06
2022-09-13T11:44:03.323Z,20.06
2022-09-13T11:47:11.658Z,20.13
2022-09-13T11:50:32.308Z,20.13
2022-09-13T11:53:50.442Z,20.19
2022-09-13T11:56:52.290Z,20.19
2022-09-13T12:00:07.812Z,20.19
2022-09-13T12:03:11.186Z,20.19
2022-09-13T12:06:13.380Z,20.25
2022-09-13T12:09:19.339Z,20.31
2022-09-13T12:12:28.011Z,20.31
2022-09-13T12:15:39.386Z,20.31
2022-09-13T12:18:38.344Z,20.31
2022-09-13T12:21:40.302Z,20.38
2022-09-13T12:24:41.797Z,20.38
2022-09-13T12:27:42.184Z,20.44
2022-09-13T12:30:54.920Z,20.44
2022-09-13T12:34:00.779Z,20.38
2022-09-13T12:37:30.852Z,20.44
2022-09-13T12:40:58.815Z,20.44
2022-09-13T12:44:15.878Z,20.50
2022-09-13T12:47:50.326Z,20.50
2022-09-13T12:51:11.671Z,20.50
2022-09-13T12:54:55.276Z,20.50
2022-09-13T12:58:02.493Z,20.56
2022-09-13T13:01:14.131Z,20.56
2022-09-13T13:04:19.523Z,20.56
2022-09-13T13:07:35.399Z,20.56
2022-09-13T13:11:06.174Z,20.56
2022-09-13T13:14:10.353Z,20.56
2022-09-13T13:17:57.820Z,20.56
2022-09-13T13:21:34.691Z,20.56
2022-09-13T13:24:52.523Z,20.56
2022-09-13T13:27:58.906Z,20.56
2022-09-13T13:31:30.005Z,20.56
2022-09-13T13:34:48.509Z,20.56
2022-09-13T13:38:05.924Z,20.56
2022-09-13T13:41:30.793Z,20.56
2022-09-13T13:45:26.076Z,20.56
2022-09-13T13:51:55.571Z,20.56
2022-09-13T13:55:09.820Z,20.56
2022-09-13T13:58:28.758Z,20.56
2022-09-13T14:01:42.861Z,20.56
2022-09-13T14:05:15.495Z,20.56
2022-09-13T14:08:34.439Z,20.56
2022-09-13T14:12:08.501Z,20.56
2022-09-13T14:15:48.367Z,20.56
2022-09-13T14:19:39.943Z,20.56
2022-09-13T14:22:45.807Z,20.63
2022-09-13T14:25:50.585Z,20.63
2022-09-13T14:29:14.446Z,20.63
2022-09-13T14:32:24.294Z,20.63
2022-09-13T14:35:59.601Z,20.63
2022-09-13T14:39:31.398Z,20.63
2022-09-13T14:42:41.333Z,20.63
2022-09-13T14:45:38.873Z,20.63
2022-09-13T14:48:47.876Z,20.63
2022-09-13T14:52:13.950Z,20.63
2022-09-13T14:55:22.976Z,20.63
2022-09-13T14:58:19.364Z,20.63
2022-09-13T15:01:26.488Z,20.63
2022-09-13T15:04:27.610Z,20.63
2022-09-13T15:08:00.819Z,20.63
2022-09-13T15:11:27.596Z,20.69
2022-09-13T15:14:28.827Z,20.69
2022-09-13T15:17:28.226Z,20.63
2022-09-13T15:20:52.086Z,20.69
2022-09-13T15:27:14.945Z,20.69
2022-09-13T15:30:35.973Z,20.69
2022-09-13T15:34:18.643Z,20.63
2022-09-13T15:41:41.734Z,20.56
2022-09-13T15:45:21.955Z,20.56
2022-09-13T15:49:14.965Z,20.56
2022-09-13T15:52:37.909Z,20.56
2022-09-13T15:55:40.723Z,20.50
2022-09-13T15:59:17.072Z,20.50
2022-09-13T16:03:03.076Z,20.50
2022-09-13T16:06:29.977Z,20.50
2022-09-13T16:10:32.829Z,20.50
2022-09-13T16:13:53.006Z,20.44
2022-09-13T16:16:59.973Z,20.44
2022-09-13T16:20:14.077Z,20.44
2022-09-13T16:23:29.926Z,20.44
2022-09-13T16:26:46.398Z,20.44
2022-09-13T16:30:19.714Z,20.44
2022-09-13T16:33:42.971Z,20.44
2022-09-13T16:36:43.938Z,20.38
2022-09-13T16:39:45.956Z,20.38
2022-09-13T16:42:54.638Z,20.38
2022-09-13T16:46:15.896Z,20.38
2022-09-13T16:49:52.836Z,20.38
2022-09-13T16:53:07.062Z,20.38
2022-09-13T16:56:14.596Z,20.38
2022-09-13T17:00:38.976Z,20.31
2022-09-13T17:04:27.030Z,20.31
2022-09-13T17:07:48.994Z,20.31
2022-09-13T17:11:07.323Z,20.31
2022-09-13T17:14:21.997Z,20.25
2022-09-13T17:17:51.459Z,20.25
2022-09-13T17:21:06.990Z,20.25
2022-09-13T17:24:16.991Z,20.25
2022-09-13T17:28:04.051Z,20.25
2022-09-13T17:31:11.183Z,20.25
2022-09-13T17:34:32.118Z,20.25
2022-09-13T17:38:12.875Z,20.25
2022-09-13T17:45:17.117Z,20.19
2022-09-13T17:48:40.098Z,20.19
2022-09-13T17:52:58.100Z,20.19
2022-09-13T17:56:49.009Z,20.19
2022-09-13T18:00:39.108Z,20.13
2022-09-13T18:04:40.248Z,20.13
2022-09-13T18:08:26.089Z,20.13
2022-09-13T18:11:50.107Z,20.13
2022-09-13T18:15:18.192Z,20.13
2022-09-13T18:19:03.905Z,20.13
2022-09-13T18:22:13.660Z,20.06
2022-09-13T18:25:27.980Z,20.06
2022-09-13T18:28:42.155Z,20.13
2022-09-13T18:31:46.802Z,20.06
2022-09-13T18:35:10.173Z,20.06
2022-09-13T18:38:33.063Z,20.06
2022-09-13T18:41:34.825Z,20.06
2022-09-13T18:44:41.686Z,20.06
2022-09-13T18:48:17.864Z,20.06
2022-09-13T18:52:02.080Z,20.06
2022-09-13T18:55:31.797Z,20.06
2022-09-13T18:58:51.802Z,20.06
2022-09-13T19:02:33.160Z,20.06
2022-09-13T19:13:38.106Z,20.06
2022-09-13T19:16:54.263Z,20.06
2022-09-13T19:20:10.119Z,20.06
2022-09-13T19:23:55.522Z,20.06
2022-09-13T19:27:04.213Z,20.00
2022-09-13T19:30:40.939Z,20.00
2022-09-13T19:34:24.294Z,20.00
2022-09-13T19:37:52.114Z,20.00
2022-09-13T19:41:09.021Z,20.00
2022-09-13T19:44:21.109Z,20.00
2022-09-13T19:48:38.233Z,20.00
2022-09-13T19:52:17.209Z,20.00
2022-09-13T19:59:54.767Z,19.94
2022-09-13T20:04:44.307Z,19.94
2022-09-13T20:08:31.548Z,19.94
2022-09-13T20:12:00.568Z,19.94
2022-09-13T20:15:28.260Z,19.88
2022-09-13T20:18:43.595Z,19.88
2022-09-13T20:22:27.606Z,19.88
2022-09-13T20:25:43.437Z,19.88
2022-09-13T20:28:58.314Z,19.88
2022-09-13T20:32:11.750Z,19.88
2022-09-13T20:35:19.745Z,19.88
2022-09-13T20:38:39.193Z,19.88
2022-09-13T20:41:55.331Z,19.88
2022-09-13T20:44:57.003Z,19.88
2022-09-13T20:48:17.176Z,19.81
2022-09-13T20:51:58.175Z,19.88
2022-09-13T20:55:11.286Z,19.81
2022-09-13T20:58:23.490Z,19.81
2022-09-13T21:01:24.870Z,19.81
2022-09-13T21:04:29.376Z,19.81
2022-09-13T21:08:23.100Z,19.81
2022-09-13T21:11:57.797Z,19.81
2022-09-13T21:15:00.217Z,19.81
2022-09-13T21:18:13.843Z,19.81
2022-09-13T21:21:49.207Z,19.81
2022-09-13T21:25:18.124Z,19.75
2022-09-13T21:28:21.131Z,19.75
2022-09-13T21:31:27.177Z,19.75
2022-09-13T21:34:39.799Z,19.75
2022-09-13T21:37:52.015Z,19.81
2022-09-13T21:41:03.754Z,19.75
2022-09-13T21:44:37.227Z,19.75
2022-09-13T21:47:48.363Z,19.75
2022-09-13T21:51:36.211Z,19.75
2022-09-13T21:54:50.489Z,19.75
2022-09-13T21:58:07.682Z,19.69
2022-09-13T22:01:23.382Z,19.69
2022-09-13T22:04:47.936Z,19.69
2022-09-13T22:08:11.383Z,19.69
2022-09-13T22:11:26.139Z,19.69
2022-09-13T22:14:35.388Z,19.69
2022-09-13T22:17:50.494Z,19.69
2022-09-13T22:21:15.099Z,19.69
2022-09-13T22:24:26.971Z,19.63
2022-09-13T22:27:57.853Z,19.63
2022-09-13T22:31:47.491Z,19.63
2022-09-13T22:35:10.099Z,19.63
2022-09-13T22:38:20.955Z,19.63
2022-09-13T22:41:32.541Z,19.63
2022-09-13T22:44:47.005Z,19.63
2022-09-13T22:47:57.989Z,19.63
2022-09-13T22:51:04.098Z,19.63
2022-09-13T22:54:06.998Z,19.63
2022-09-13T22:57:17.186Z,19.63
2022-09-13T23:00:16.906Z,19.63
2022-09-13T23:03:24.274Z,19.63
2022-09-13T23:06:23.408Z,19.56
2022-09-13T23:09:19.718Z,19.56
2022-09-13T23:12:24.408Z,19.56
2022-09-13T23:15:28.629Z,19.56
2022-09-13T23:18:23.402Z,19.56
2022-09-13T23:21:39.270Z,19.56
2022-09-13T23:24:42.421Z,19.56
2022-09-13T23:27:38.238Z,19.56
2022-09-13T23:30:33.262Z,19.56
2022-09-13T23:33:52.740Z,19.56
2022-09-13T23:37:00.617Z,19.56
2022-09-13T23:40:14.268Z,19.56
2022-09-13T23:43:32.255Z,19.56
2022-09-13T23:46:42.889Z,19.56
2022-09-13T23:49:55.754Z,19.56
2022-09-13T23:53:05.132Z,19.50
2022-09-13T23:55:59.322Z,19.50
2022-09-13T23:59:07.026Z,19.50
